Time;durP1;ratioP1;P1;durP2;ratioP2;P2;SDS_P1;SDS_P2;PMS_P1;PMS_P2;Temp;Humidity;BMP_temperature;BMP_pressure;BME280_temperature;BME280_humidity;BME280_pressure;Samples;Min_cycle;Max_cycle;Signal;HPM_P1;HPM_P2
2022/01/14 00:00:59;;;;;;;11.87;4.27;;;;;;;-0.64;95.48;98200.94;5069369;28;20581;-71
2022/01/14 00:03:25;;;;;;;7.30;4.07;;;;;;;-0.68;96.08;98189.03;5068855;28;20209;-71
2022/01/14 00:05:53;;;;;;;8.90;4.57;;;;;;;-0.29;95.25;98195.19;5069809;28;20261;-70
2022/01/14 00:08:20;;;;;;;4.20;3.10;;;;;;;-0.43;94.18;98192.31;5069047;28;20230;-71
2022/01/14 00:10:49;;;;;;;12.47;5.13;;;;;;;-0.30;94.18;98185.72;5070779;28;20261;-71
2022/01/14 00:13:39;;;;;;;7.80;5.03;;;;;;;-0.39;94.07;98193.88;5072552;28;20287;-71
2022/01/14 00:16:03;;;;;;;9.07;5.60;;;;;;;-0.27;94.45;98188.16;5068024;28;20255;-72
2022/01/14 00:18:29;;;;;;;11.40;4.50;;;;;;;-0.16;93.49;98180.78;5069471;28;20232;-69
2022/01/14 00:20:59;;;;;;;12.07;5.87;;;;;;;-0.25;93.49;98178.59;5072860;28;20220;-71
2022/01/14 00:23:30;;;;;;;8.10;4.57;;;;;;;-0.42;93.16;98188.81;5072118;28;20228;-70
2022/01/14 00:31:42;;;;;;;13.03;6.67;;;;;;;-0.31;93.01;98184.03;5070615;28;20295;-70
2022/01/14 00:34:10;;;;;;;9.23;5.50;;;;;;;-0.44;93.10;98182.88;5067793;28;20714;-71
2022/01/14 00:36:37;;;;;;;9.00;5.80;;;;;;;-0.39;92.95;98184.34;5076091;28;20218;-70
2022/01/14 00:39:05;;;;;;;8.37;6.53;;;;;;;-0.42;92.63;98188.81;5067997;28;20220;-69
2022/01/14 00:41:31;;;;;;;14.20;6.90;;;;;;;-0.46;92.85;98177.75;5068107;28;20239;-71
2022/01/14 00:44:01;;;;;;;11.93;4.87;;;;;;;-0.54;93.98;98184.13;5068857;28;20211;-71
2022/01/14 00:46:28;;;;;;;6.37;4.10;;;;;;;-0.37;93.37;98187.72;5069402;28;20247;-71
2022/01/14 00:48:56;;;;;;;9.67;3.93;;;;;;;-0.42;93.37;98183.63;5072248;28;20200;-71
2022/01/14 00:51:22;;;;;;;13.83;5.73;;;;;;;-0.65;94.03;98180.31;5073958;28;20608;-71
2022/01/14 00:53:50;;;;;;;7.20;2.67;;;;;;;-0.39;94.37;98180.91;5074603;28;20205;-71
2022/01/14 00:56:29;;;;;;;9.57;5.53;;;;;;;-0.55;93.62;98175.53;5073866;28;20218;-70
2022/01/14 01:01:42;;;;;;;20.77;5.33;;;;;;;-0.74;94.30;98165.97;5070209;28;20212;-71
2022/01/14 01:04:09;;;;;;;11.13;4.37;;;;;;;-0.63;94.02;98175.91;5071964;28;20196;-69
2022/01/14 01:06:36;;;;;;;6.83;3.37;;;;;;;-0.52;93.25;98174.56;5072767;28;20229;-70
2022/01/14 01:09:08;;;;;;;7.50;4.17;;;;;;;-0.46;92.78;98169.13;5070888;28;20208;-70
2022/01/14 01:11:37;;;;;;;3.87;3.47;;;;;;;-0.66;93.18;98166.53;5072947;28;20207;-71
2022/01/14 01:14:09;;;;;;;8.10;3.90;;;;;;;-0.65;93.58;98170.78;5071631;28;20257;-71
2022/01/14 01:16:36;;;;;;;8.13;5.03;;;;;;;-0.81;93.58;98164.56;5072168;28;20219;-71
2022/01/14 01:19:02;;;;;;;10.90;4.93;;;;;;;-0.79;93.88;98165.34;5072464;28;20208;-71
2022/01/14 01:21:29;;;;;;;5.70;4.30;;;;;;;-0.79;94.54;98173.13;5071590;28;20228;-71
2022/01/14 01:23:55;;;;;;;11.43;5.27;;;;;;;-0.57;93.55;98171.34;5072157;28;20206;-70
2022/01/14 01:26:28;;;;;;;9.03;4.77;;;;;;;-0.73;93.36;98172.84;5073304;28;20223;-70
2022/01/14 01:29:02;;;;;;;4.50;3.87;;;;;;;-0.88;92.98;98177.81;5073889;28;20204;-70
2022/01/14 01:31:42;;;;;;;6.50;3.47;;;;;;;-0.94;93.91;98178.03;5075330;28;20211;-70
2022/01/14 01:34:12;;;;;;;3.07;2.77;;;;;;;-0.80;94.05;98176.59;5066284;28;20204;-71
2022/01/14 01:36:40;;;;;;;9.17;3.83;;;;;;;-0.90;93.64;98185.63;5072243;28;20231;-70
2022/01/14 01:39:08;;;;;;;9.00;4.60;;;;;;;-0.80;94.16;98176.59;5070881;28;20208;-71
2022/01/14 01:41:40;;;;;;;9.20;5.43;;;;;;;-0.63;93.58;98168.97;5062343;28;20230;-71
2022/01/14 01:44:07;;;;;;;4.43;2.67;;;;;;;-0.79;93.78;98162.78;5059057;28;20220;-71
2022/01/14 01:46:37;;;;;;;6.77;3.70;;;;;;;-0.54;94.08;98171.19;5059601;28;20220;-71
2022/01/14 01:49:05;;;;;;;13.73;3.67;;;;;;;-0.49;93.57;98158.91;5059635;28;20200;-71
2022/01/14 01:51:31;;;;;;;13.60;5.53;;;;;;;-0.63;93.79;98156.03;5058833;28;20196;-71
2022/01/14 01:53:58;;;;;;;15.47;3.47;;;;;;;-0.74;93.98;98152.22;5058514;28;20209;-71
2022/01/14 01:56:24;;;;;;;9.13;3.30;;;;;;;-0.80;94.06;98145.56;5059159;28;20235;-71
2022/01/14 01:58:53;;;;;;;15.00;4.67;;;;;;;-0.65;94.22;98150.06;5058845;28;20200;-71
2022/01/14 02:01:19;;;;;;;12.40;4.63;;;;;;;-0.70;94.64;98149.44;5058549;28;20722;-71
2022/01/14 02:03:46;;;;;;;6.93;2.93;;;;;;;-0.78;94.06;98143.72;5059609;28;20676;-71
2022/01/14 02:06:12;;;;;;;10.20;4.00;;;;;;;-0.98;94.55;98143.72;5059067;28;20224;-71
2022/01/14 02:08:39;;;;;;;5.40;3.30;;;;;;;-0.79;93.98;98139.47;5058856;28;21195;-71
2022/01/14 02:11:05;;;;;;;11.80;4.10;;;;;;;-0.76;93.68;98135.88;5059986;28;20208;-71
2022/01/14 02:13:32;;;;;;;7.03;4.63;;;;;;;-0.84;93.34;98138.81;5059242;28;20198;-71
2022/01/14 02:16:18;;;;;;;8.33;4.27;;;;;;;-0.72;94.15;98148.66;5059433;28;20314;-71
2022/01/14 02:19:00;;;;;;;5.20;4.40;;;;;;;-0.99;94.18;98151.53;5058319;28;20972;-71
2022/01/14 02:24:21;;;;;;;4.00;3.33;;;;;;;-1.23;95.20;98150.75;5058077;28;20301;-71
2022/01/14 02:26:50;;;;;;;6.60;5.50;;;;;;;-1.15;95.86;98138.34;5058286;28;20815;-71
2022/01/14 02:29:17;;;;;;;3.40;3.10;;;;;;;-0.89;95.61;98135.56;5058475;28;20289;-71
2022/01/14 02:31:44;;;;;;;8.90;4.13;;;;;;;-0.77;95.25;98126.47;5058519;28;20195;-71
2022/01/14 02:34:12;;;;;;;11.73;5.40;;;;;;;-0.89;94.83;98125.22;5058107;28;20210;-71
2022/01/14 02:36:41;;;;;;;16.93;4.43;;;;;;;-0.58;94.56;98123.03;5058527;28;20220;-71
2022/01/14 02:39:08;;;;;;;10.20;4.50;;;;;;;-0.80;94.55;98119.66;5022266;28;1038656;-71
2022/01/14 02:41:35;;;;;;;2.93;2.63;;;;;;;-0.99;94.93;98118.72;5059130;28;20484;-71
2022/01/14 02:44:04;;;;;;;6.40;3.57;;;;;;;-0.92;95.31;98117.56;5058794;28;20202;-71
2022/01/14 02:46:36;;;;;;;8.93;4.13;;;;;;;-0.94;95.08;98113.34;5059018;28;20266;-71
2022/01/14 02:49:03;;;;;;;9.60;4.17;;;;;;;-0.72;95.44;98111.59;5059053;28;20205;-71
2022/01/14 02:51:30;;;;;;;7.57;5.20;;;;;;;-0.64;94.31;98112.94;5059220;28;20191;-71
2022/01/14 02:54:10;;;;;;;9.77;3.70;;;;;;;-0.57;94.40;98111.78;5058177;28;20223;-71
2022/01/14 02:56:38;;;;;;;7.83;3.40;;;;;;;-0.81;94.19;98101.63;5058781;28;20223;-71
2022/01/14 02:59:07;;;;;;;12.63;4.37;;;;;;;-0.93;94.66;98097.78;5059106;28;20211;-71
2022/01/14 03:01:33;;;;;;;14.37;4.43;;;;;;;-0.97;95.72;98100.56;5059028;28;20227;-71
2022/01/14 03:04:01;;;;;;;11.80;4.60;;;;;;;-0.84;95.37;98100.00;5057514;28;20593;-71
2022/01/14 03:06:28;;;;;;;5.43;3.67;;;;;;;-0.76;94.91;98095.34;5055575;28;21036;-72
2022/01/14 03:08:56;;;;;;;14.63;6.60;;;;;;;-1.11;94.59;98093.38;5058518;28;20226;-71
2022/01/14 03:11:30;;;;;;;10.07;4.27;;;;;;;-0.89;95.42;98091.59;5058471;28;20207;-71
2022/01/14 03:13:57;;;;;;;8.67;6.30;;;;;;;-0.97;95.40;98093.66;5058262;28;20204;-71
2022/01/14 03:16:24;;;;;;;7.50;5.33;;;;;;;-1.15;94.99;98086.63;5059232;28;20223;-71
2022/01/14 03:18:53;;;;;;;11.93;4.70;;;;;;;-1.06;95.30;98088.84;5058268;28;20728;-71
2022/01/14 03:21:27;;;;;;;7.60;3.63;;;;;;;-0.90;95.02;98087.31;5058418;28;20517;-71
2022/01/14 03:24:03;;;;;;;16.73;4.20;;;;;;;-0.90;94.54;98084.72;5058917;28;20204;-71
2022/01/14 03:26:31;;;;;;;13.33;5.67;;;;;;;-0.61;93.93;98086.94;5058178;28;20230;-71
2022/01/14 03:28:58;;;;;;;14.00;4.43;;;;;;;-0.96;94.57;98089.31;5057352;28;20667;-71
2022/01/14 03:31:25;;;;;;;3.90;3.57;;;;;;;-1.09;94.18;98088.13;5058546;28;20202;-71
2022/01/14 03:33:51;;;;;;;8.57;5.60;;;;;;;-1.10;94.42;98089.84;5057601;28;20896;-71
2022/01/14 03:36:18;;;;;;;9.77;4.43;;;;;;;-1.17;93.58;98095.38;5057928;28;20216;-71
2022/01/14 03:38:44;;;;;;;7.30;4.00;;;;;;;-1.38;95.11;98088.44;5058064;28;20204;-71
2022/01/14 03:41:11;;;;;;;5.10;2.73;;;;;;;-1.63;95.10;98092.03;5057924;28;20234;-71
2022/01/14 03:43:40;;;;;;;10.27;4.90;;;;;;;-1.38;96.00;98093.63;5057230;28;20214;-71
2022/01/14 03:46:07;;;;;;;6.10;5.50;;;;;;;-1.36;95.00;98090.97;5057824;28;20335;-71
2022/01/14 03:48:33;;;;;;;9.63;2.97;;;;;;;-1.21;94.14;98092.06;5058116;28;20200;-71
2022/01/14 03:51:00;;;;;;;5.83;4.27;;;;;;;-1.26;93.64;98084.53;5058150;28;20196;-71
2022/01/14 03:53:26;;;;;;;9.70;4.60;;;;;;;-1.56;95.03;98088.34;5057236;28;20215;-71
2022/01/14 03:55:53;;;;;;;11.40;6.07;;;;;;;-1.49;94.60;98090.63;5057600;28;20562;-71
2022/01/14 03:58:19;;;;;;;8.50;3.73;;;;;;;-1.26;94.40;98081.94;5057322;28;20200;-71
2022/01/14 04:00:47;;;;;;;14.83;5.93;;;;;;;-0.97;94.01;98091.06;5058297;28;20704;-71
2022/01/14 04:03:14;;;;;;;15.13;6.63;;;;;;;-1.16;93.70;98086.69;5056596;28;20207;-70
2022/01/14 04:05:40;;;;;;;15.00;7.43;;;;;;;-1.45;94.71;98087.03;5057468;28;20224;-71
2022/01/14 04:08:07;;;;;;;11.53;4.83;;;;;;;-1.42;94.42;98091.22;5057785;28;20204;-71
2022/01/14 04:10:34;;;;;;;20.43;7.37;;;;;;;-1.37;93.30;98084.13;5057414;28;20695;-71
2022/01/14 04:13:04;;;;;;;6.13;5.10;;;;;;;-1.68;94.32;98071.56;5056814;28;20211;-71
2022/01/14 04:15:38;;;;;;;9.70;6.20;;;;;;;-1.55;93.91;98071.94;5056888;28;20223;-71
2022/01/14 04:18:07;;;;;;;17.10;8.57;;;;;;;-1.42;94.31;98066.22;5058002;28;20207;-71
2022/01/14 04:20:35;;;;;;;15.53;7.60;;;;;;;-1.59;93.11;98065.16;5057033;28;20676;-71
2022/01/14 04:23:04;;;;;;;13.30;5.40;;;;;;;-1.74;93.20;98066.63;5057078;28;20232;-71
2022/01/14 04:25:31;;;;;;;11.23;5.43;;;;;;;-1.51;93.12;98068.31;5057322;28;20224;-71
2022/01/14 04:27:58;;;;;;;15.60;9.07;;;;;;;-1.50;92.60;98057.06;5057682;28;20657;-71
2022/01/14 04:30:24;;;;;;;8.93;5.30;;;;;;;-1.62;92.55;98063.56;5057631;28;20201;-70
2022/01/14 04:32:51;;;;;;;16.00;4.30;;;;;;;-1.68;92.59;98058.63;5057327;28;20652;-71
2022/01/14 04:35:20;;;;;;;14.53;7.17;;;;;;;-1.34;91.94;98055.56;5057239;28;20200;-71
2022/01/14 04:37:46;;;;;;;12.03;6.40;;;;;;;-1.64;91.33;98054.19;5057518;28;20207;-71
2022/01/14 04:40:14;;;;;;;9.83;5.50;;;;;;;-1.44;91.46;98041.31;5057862;28;20233;-71
2022/01/14 04:42:42;;;;;;;25.03;3.47;;;;;;;-1.34;90.33;98042.63;5057833;28;20219;-71
2022/01/14 04:45:10;;;;;;;4.30;3.03;;;;;;;-1.17;90.26;98044.47;5057013;28;20197;-71
2022/01/14 04:47:45;;;;;;;9.07;4.77;;;;;;;-1.29;89.58;98051.88;5057529;28;20197;-71
2022/01/14 04:50:12;;;;;;;8.47;3.83;;;;;;;-1.16;89.27;98048.75;5057269;28;20289;-71
2022/01/14 04:52:42;;;;;;;10.10;5.87;;;;;;;-1.20;89.43;98054.09;5055883;28;20204;-71
2022/01/14 04:55:10;;;;;;;10.70;3.93;;;;;;;-1.10;88.23;98051.06;5056661;28;20256;-71
2022/01/14 04:57:36;;;;;;;6.13;4.17;;;;;;;-1.25;88.92;98047.44;5057093;28;20243;-70
2022/01/14 05:00:05;;;;;;;8.57;5.53;;;;;;;-1.26;88.71;98049.19;5057436;28;20204;-71
2022/01/14 05:02:32;;;;;;;12.07;4.90;;;;;;;-1.40;87.81;98038.56;5056930;28;20228;-71
2022/01/14 05:04:59;;;;;;;7.80;4.07;;;;;;;-1.34;88.08;98038.28;5057187;28;20201;-71
2022/01/14 05:07:26;;;;;;;7.77;5.00;;;;;;;-1.22;87.92;98030.88;5056362;28;20315;-71
2022/01/14 05:10:09;;;;;;;7.87;4.00;;;;;;;-1.13;87.58;98042.59;5057146;28;20748;-71
2022/01/14 05:12:38;;;;;;;13.53;4.87;;;;;;;-1.16;87.13;98030.63;5056254;28;20212;-71
2022/01/14 05:15:07;;;;;;;8.90;3.30;;;;;;;-1.42;87.53;98039.53;5057084;28;20235;-71
2022/01/14 05:17:34;;;;;;;7.20;2.50;;;;;;;-1.24;86.18;98037.03;5057100;28;20223;-71
2022/01/14 05:20:00;;;;;;;7.80;3.80;;;;;;;-1.29;86.36;98040.72;5057270;28;20204;-71
2022/01/14 05:22:28;;;;;;;7.73;5.17;;;;;;;-1.23;86.23;98034.38;5056332;28;20591;-71
2022/01/14 05:24:56;;;;;;;7.60;4.33;;;;;;;-1.27;86.85;98038.88;5057165;28;20208;-71
2022/01/14 05:27:22;;;;;;;14.13;4.77;;;;;;;-1.30;86.21;98039.84;5056048;28;20232;-71
2022/01/14 05:29:49;;;;;;;9.37;4.10;;;;;;;-1.35;86.07;98035.78;5057322;28;20200;-71
2022/01/14 05:32:16;;;;;;;3.23;3.00;;;;;;;-1.31;85.96;98042.50;5055468;28;20251;-71
2022/01/14 05:34:45;;;;;;;5.90;4.33;;;;;;;-1.18;86.79;98041.94;5060245;28;20225;-71
2022/01/14 05:37:12;;;;;;;4.30;3.10;;;;;;;-1.25;85.69;98043.09;5060270;28;20222;-71
2022/01/14 05:39:39;;;;;;;7.80;5.13;;;;;;;-1.39;86.33;98034.22;5059990;28;20214;-71
2022/01/14 05:42:08;;;;;;;7.03;4.33;;;;;;;-1.33;87.72;98033.97;5060391;28;20217;-71
2022/01/14 05:44:35;;;;;;;9.57;5.17;;;;;;;-1.35;87.23;98035.78;5061007;28;20204;-71
2022/01/14 05:47:02;;;;;;;10.10;4.60;;;;;;;-1.46;87.19;98037.97;5059783;28;20219;-71
2022/01/14 05:49:29;;;;;;;11.23;4.70;;;;;;;-1.50;87.58;98023.47;5059495;28;20204;-71
2022/01/14 05:51:55;;;;;;;8.40;4.00;;;;;;;-1.49;87.02;98031.19;5060561;28;20604;-71
2022/01/14 05:54:22;;;;;;;9.67;4.50;;;;;;;-1.31;86.12;98026.97;5059012;28;20225;-71
2022/01/14 05:56:49;;;;;;;8.03;3.20;;;;;;;-1.35;85.97;98020.25;5059668;28;20227;-71
2022/01/14 05:59:17;;;;;;;5.70;5.00;;;;;;;-1.41;86.34;98023.09;5059726;28;20580;-71
2022/01/14 06:01:44;;;;;;;5.73;3.97;;;;;;;-1.42;86.55;98019.66;5059549;28;20224;-71
2022/01/14 06:04:11;;;;;;;11.13;4.80;;;;;;;-1.37;85.98;98012.56;5058226;28;20207;-71
2022/01/14 06:06:37;;;;;;;6.97;3.60;;;;;;;-1.43;86.34;98006.81;5059305;28;20753;-71
2022/01/14 06:09:05;;;;;;;14.70;7.60;;;;;;;-1.42;86.70;98008.50;5059488;28;20208;-71
2022/01/14 06:11:31;;;;;;;23.50;5.10;;;;;;;-1.41;86.27;98005.00;5059172;28;20196;-71
2022/01/14 06:13:58;;;;;;;7.83;4.43;;;;;;;-1.43;86.85;98009.41;5058720;28;20200;-71
2022/01/14 06:16:26;;;;;;;5.30;3.40;;;;;;;-1.32;86.44;98004.59;5059704;28;20587;-71
2022/01/14 06:18:52;;;;;;;12.40;5.67;;;;;;;-1.40;86.48;98006.69;5058958;28;20204;-71
2022/01/14 06:21:19;;;;;;;11.37;6.07;;;;;;;-1.75;87.66;98017.59;5058674;28;20210;-71
2022/01/14 06:23:45;;;;;;;19.77;8.53;;;;;;;-1.53;88.04;98010.66;5058176;28;20614;-71
2022/01/14 06:26:12;;;;;;;11.90;6.93;;;;;;;-1.50;87.92;98013.13;5059440;28;20274;-71
2022/01/14 06:28:38;;;;;;;12.47;5.50;;;;;;;-1.54;88.06;98019.31;5058781;28;20223;-71
2022/01/14 06:31:05;;;;;;;9.27;6.17;;;;;;;-1.50;88.21;98020.88;5058658;28;20201;-71
2022/01/14 06:33:32;;;;;;;8.90;5.53;;;;;;;-1.28;88.04;98021.72;5058314;28;20636;-71
2022/01/14 06:35:59;;;;;;;11.60;7.17;;;;;;;-1.36;87.15;98016.84;5057978;28;20224;-71
2022/01/14 06:38:25;;;;;;;19.67;6.53;;;;;;;-1.38;87.04;98025.56;5057893;28;20219;-71
2022/01/14 06:40:52;;;;;;;11.67;6.03;;;;;;;-1.40;86.95;98017.00;5057427;28;20215;-70
2022/01/14 06:43:18;;;;;;;14.07;7.57;;;;;;;-1.39;86.75;98013.53;5057942;28;20233;-71
2022/01/14 06:45:45;;;;;;;10.00;6.70;;;;;;;-1.40;87.29;98017.00;5056805;28;20711;-71
2022/01/14 06:48:11;;;;;;;10.50;5.93;;;;;;;-1.38;87.40;98020.41;5059385;28;20208;-71
2022/01/14 06:50:39;;;;;;;10.50;6.50;;;;;;;-1.26;87.59;98025.91;5057974;28;20200;-71
2022/01/14 06:53:06;;;;;;;9.83;7.17;;;;;;;-1.34;87.00;98022.78;5057263;28;20873;-71
2022/01/14 06:55:32;;;;;;;12.10;6.77;;;;;;;-1.19;86.38;98017.81;5059437;28;20227;-71
2022/01/14 06:57:59;;;;;;;14.63;5.60;;;;;;;-1.23;87.23;98018.84;5058316;28;20664;-71
2022/01/14 07:00:25;;;;;;;16.50;6.40;;;;;;;-1.29;86.74;98025.19;5058107;28;20213;-71
2022/01/14 07:02:52;;;;;;;13.60;6.10;;;;;;;-1.22;86.91;98024.88;5057467;28;20341;-71
2022/01/14 07:05:18;;;;;;;20.57;8.60;;;;;;;-1.29;87.70;98014.84;5057417;28;20205;-71
2022/01/14 07:07:47;;;;;;;17.47;7.93;;;;;;;-1.18;87.81;98018.69;5057752;28;20209;-71
2022/01/14 07:10:13;;;;;;;25.50;6.40;;;;;;;-1.42;87.81;98024.84;5059305;28;20212;-71
2022/01/14 07:12:41;;;;;;;15.60;7.07;;;;;;;-1.27;88.29;98028.53;5057102;28;20196;-71
2022/01/14 07:15:11;;;;;;;9.30;5.97;;;;;;;-1.07;88.18;98022.50;5057592;28;20228;-71
2022/01/14 07:17:39;;;;;;;7.90;5.27;;;;;;;-1.28;88.58;98026.88;5057971;28;20207;-71
2022/01/14 07:20:11;;;;;;;15.80;6.60;;;;;;;-1.21;88.66;98029.13;5058128;28;20196;-71
2022/01/14 07:22:38;;;;;;;13.77;7.33;;;;;;;-1.25;88.69;98026.75;5056874;28;20259;-71
2022/01/14 07:25:07;;;;;;;16.60;6.37;;;;;;;-1.07;88.10;98026.81;5058198;28;21102;-71
2022/01/14 07:27:33;;;;;;;11.23;5.93;;;;;;;-1.01;87.76;98017.03;5057380;28;20207;-71
2022/01/14 07:30:00;;;;;;;10.73;7.43;;;;;;;-1.01;87.57;98022.22;5057989;28;20196;-71
2022/01/14 07:32:27;;;;;;;28.27;9.70;;;;;;;-0.89;87.67;98020.88;5056616;28;20207;-72
2022/01/14 07:34:53;;;;;;;7.20;4.43;;;;;;;-0.97;88.29;98023.81;5057928;28;20208;-71
2022/01/14 07:37:20;;;;;;;14.63;4.83;;;;;;;-1.07;88.38;98025.09;5057187;28;20219;-71
2022/01/14 07:39:47;;;;;;;7.87;4.77;;;;;;;-0.98;88.58;98026.44;5057036;28;20220;-71
2022/01/14 07:42:15;;;;;;;10.00;6.43;;;;;;;-0.90;88.62;98027.78;5056794;28;20232;-71
2022/01/14 07:44:43;;;;;;;6.93;4.27;;;;;;;-0.83;88.12;98036.97;5057405;28;20234;-71
2022/01/14 07:47:09;;;;;;;11.00;6.33;;;;;;;-0.81;88.50;98035.16;5056718;28;20223;-71
2022/01/14 07:49:36;;;;;;;11.17;4.53;;;;;;;-0.96;89.24;98035.81;5057182;28;20207;-71
2022/01/14 07:52:03;;;;;;;22.60;7.50;;;;;;;-0.90;89.09;98042.50;5056851;28;20200;-71
2022/01/14 07:54:29;;;;;;;13.13;6.93;;;;;;;-0.81;89.57;98036.94;5055936;28;20208;-71
2022/01/14 07:57:00;;;;;;;12.83;5.27;;;;;;;-0.77;89.84;98036.72;5056232;28;20220;-71
2022/01/14 07:59:31;;;;;;;8.00;5.23;;;;;;;-0.71;90.18;98036.47;5057118;28;20203;-71
2022/01/14 08:01:59;;;;;;;10.50;5.57;;;;;;;-0.70;90.03;98040.75;5056377;28;20199;-71
2022/01/14 08:04:26;;;;;;;10.30;4.63;;;;;;;-0.80;90.85;98039.44;5056472;28;20204;-71
2022/01/14 08:06:57;;;;;;;15.60;8.07;;;;;;;-0.82;90.46;98038.66;5056878;28;20246;-71
2022/01/14 08:09:23;;;;;;;13.60;6.30;;;;;;;-0.54;90.02;98034.81;5057409;28;20208;-71
2022/01/14 08:11:51;;;;;;;18.30;5.70;;;;;;;-0.71;90.58;98038.19;5056631;28;20240;-71
2022/01/14 08:14:17;;;;;;;14.87;7.87;;;;;;;-0.46;89.64;98040.50;5056597;28;20215;-72
2022/01/14 08:16:46;;;;;;;10.80;4.43;;;;;;;-0.38;89.17;98046.19;5057157;28;20223;-71
2022/01/14 08:19:12;;;;;;;9.47;6.27;;;;;;;-0.30;88.47;98038.91;5056717;28;20668;-71
2022/01/14 08:21:39;;;;;;;12.00;5.83;;;;;;;-0.18;88.78;98037.53;5057702;28;20201;-71
2022/01/14 08:24:06;;;;;;;7.30;4.43;;;;;;;-0.05;88.61;98038.66;5055972;28;20224;-71
2022/01/14 08:26:33;;;;;;;10.13;5.17;;;;;;;-0.19;89.55;98041.00;5057092;28;20220;-71
2022/01/14 08:28:59;;;;;;;12.97;5.33;;;;;;;-0.11;89.73;98037.19;5056255;28;20196;-71
2022/01/14 08:31:26;;;;;;;16.83;7.93;;;;;;;-0.04;89.42;98035.16;5056847;28;20443;-71
2022/01/14 08:33:54;;;;;;;10.67;5.20;;;;;;;0.14;89.40;98030.81;5054346;28;20196;-72
2022/01/14 08:36:23;;;;;;;12.60;5.93;;;;;;;0.04;89.28;98041.69;5056463;28;20216;-72
2022/01/14 08:38:50;;;;;;;13.30;5.33;;;;;;;-0.07;89.58;98040.50;5056184;28;20204;-72
2022/01/14 08:41:16;;;;;;;11.40;5.90;;;;;;;-0.13;91.00;98043.34;5056733;28;20201;-71
2022/01/14 08:43:43;;;;;;;13.33;7.73;;;;;;;-0.01;91.34;98041.88;5056140;28;21438;-71
2022/01/14 08:46:09;;;;;;;11.73;5.70;;;;;;;0.05;90.81;98046.78;5056406;28;20261;-71
2022/01/14 08:48:35;;;;;;;16.23;6.73;;;;;;;0.28;89.55;98040.53;5056731;28;20212;-72
2022/01/14 08:51:03;;;;;;;10.87;5.63;;;;;;;0.09;91.03;98037.97;5056022;28;20193;-71
2022/01/14 08:53:30;;;;;;;10.40;6.10;;;;;;;0.45;88.87;98033.66;5056089;28;21104;-71
2022/01/14 08:55:57;;;;;;;13.67;5.93;;;;;;;0.70;89.30;98035.00;5055959;28;21350;-72
2022/01/14 08:58:23;;;;;;;20.20;7.53;;;;;;;0.23;90.49;98040.75;5056376;28;20205;-72
2022/01/14 09:00:50;;;;;;;19.43;8.10;;;;;;;0.62;90.00;98038.84;5056201;28;20209;-72
2022/01/14 09:03:17;;;;;;;11.40;7.07;;;;;;;0.62;89.85;98037.13;5055925;28;20269;-72
2022/01/14 09:05:43;;;;;;;19.80;6.67;;;;;;;0.44;90.55;98033.72;5056182;28;20225;-72
2022/01/14 09:08:11;;;;;;;9.70;5.33;;;;;;;0.69;90.15;98037.66;5057675;28;20204;-72
2022/01/14 09:10:38;;;;;;;9.13;5.40;;;;;;;0.81;90.12;98035.28;5060578;28;20197;-72
2022/01/14 09:13:05;;;;;;;7.77;4.97;;;;;;;0.87;90.12;98035.00;5059418;28;20205;-72
2022/01/14 09:15:32;;;;;;;21.77;5.37;;;;;;;0.93;90.54;98039.91;5060231;28;20223;-72
2022/01/14 09:17:59;;;;;;;11.70;7.17;;;;;;;0.99;90.17;98034.38;5059966;28;20920;-72
2022/01/14 09:20:25;;;;;;;12.07;6.37;;;;;;;1.25;89.46;98032.19;5060084;28;20212;-72
2022/01/14 09:22:56;;;;;;;10.40;5.83;;;;;;;1.41;89.63;98030.50;5060045;28;20220;-72
2022/01/14 09:25:25;;;;;;;22.73;6.97;;;;;;;1.24;90.70;98029.66;5059972;28;20200;-72
2022/01/14 09:27:52;;;;;;;18.33;6.67;;;;;;;1.42;89.80;98034.75;5059821;28;20207;-71
2022/01/14 09:30:20;;;;;;;16.97;4.67;;;;;;;1.58;89.42;98033.06;5060034;28;20208;-72
2022/01/14 09:32:47;;;;;;;16.90;7.13;;;;;;;1.57;90.21;98031.38;5061050;28;20208;-71
2022/01/14 09:35:14;;;;;;;17.20;7.23;;;;;;;1.64;89.70;98032.72;5059636;28;20211;-71
2022/01/14 09:37:41;;;;;;;11.83;6.87;;;;;;;1.70;89.79;98034.19;5059750;28;20232;-71
2022/01/14 09:40:09;;;;;;;7.40;5.43;;;;;;;1.67;90.52;98029.13;5060336;28;20216;-72
2022/01/14 09:42:36;;;;;;;13.57;7.23;;;;;;;1.81;90.18;98019.69;5059607;28;20207;-71
2022/01/14 09:45:04;;;;;;;13.43;7.50;;;;;;;1.80;89.93;98023.22;5059398;28;20209;-71
2022/01/14 09:47:30;;;;;;;8.60;6.20;;;;;;;1.91;88.36;98020.91;5059564;28;20562;-71
2022/01/14 09:49:57;;;;;;;14.03;6.43;;;;;;;2.15;88.63;98023.00;5059646;28;20201;-71
2022/01/14 09:52:23;;;;;;;21.20;10.17;;;;;;;2.23;88.44;98025.16;5057857;28;20203;-71
2022/01/14 09:54:51;;;;;;;12.07;6.07;;;;;;;2.31;88.18;98023.00;5059099;28;20875;-72
2022/01/14 09:57:19;;;;;;;18.30;7.33;;;;;;;2.23;88.83;98032.97;5058384;28;20216;-71
2022/01/14 09:59:47;;;;;;;22.20;6.17;;;;;;;2.39;87.48;98021.66;5059654;28;20212;-71
2022/01/14 10:02:33;;;;;;;10.97;6.20;;;;;;;2.40;88.04;98028.53;5058298;28;20426;-71
2022/01/14 10:05:00;;;;;;;17.57;7.37;;;;;;;2.37;87.14;98020.91;5059065;28;20750;-71
2022/01/14 10:07:26;;;;;;;10.77;5.77;;;;;;;2.45;87.58;98027.34;5058260;28;20235;-72
2022/01/14 10:09:57;;;;;;;34.23;7.20;;;;;;;2.29;88.09;98025.72;5058914;28;20669;-71
2022/01/14 10:12:24;;;;;;;15.17;7.23;;;;;;;2.54;87.10;98018.22;5058405;28;20205;-71
2022/01/14 10:14:57;;;;;;;16.23;6.57;;;;;;;2.89;86.56;98012.69;5058983;28;20207;-71
2022/01/14 10:17:24;;;;;;;22.13;6.13;;;;;;;2.66;87.21;98015.75;5058055;28;20233;-71
2022/01/14 10:19:51;;;;;;;7.97;5.67;;;;;;;2.43;88.22;98007.53;5058186;28;20260;-71
2022/01/14 10:22:21;;;;;;;12.53;6.13;;;;;;;2.65;86.66;98008.88;5058452;28;20203;-72
2022/01/14 10:24:55;;;;;;;19.40;6.03;;;;;;;3.00;86.09;98002.50;5059125;28;20224;-72
2022/01/14 10:27:31;;;;;;;13.13;5.30;;;;;;;3.08;86.51;98000.28;5059072;28;20259;-73
2022/01/14 10:30:07;;;;;;;6.77;4.27;;;;;;;3.14;85.70;97998.19;5059429;28;20549;-71
2022/01/14 10:32:36;;;;;;;6.77;5.07;;;;;;;2.77;86.63;97992.56;5057984;28;20287;-71
2022/01/14 10:35:04;;;;;;;9.20;5.07;;;;;;;2.97;85.83;98007.88;5058789;28;20285;-72
2022/01/14 10:37:34;;;;;;;17.13;7.00;;;;;;;3.06;85.22;98002.16;5059375;28;20218;-73
2022/01/14 10:40:01;;;;;;;14.63;6.10;;;;;;;3.22;85.71;97992.50;5058183;28;20311;-73
2022/01/14 10:42:29;;;;;;;10.00;6.00;;;;;;;3.43;84.87;97994.66;5058498;28;20203;-72
2022/01/14 10:45:19;;;;;;;13.63;7.37;;;;;;;3.44;84.52;97990.31;5059421;28;20228;-71
2022/01/14 10:47:57;;;;;;;18.43;6.13;;;;;;;3.77;84.04;97982.13;5058895;28;20211;-72
2022/01/14 10:50:29;;;;;;;12.77;5.73;;;;;;;3.88;83.46;97979.72;5058504;28;20208;-72
2022/01/14 10:52:56;;;;;;;18.37;5.20;;;;;;;3.50;83.61;97984.72;5058494;28;20212;-72
2022/01/14 10:55:32;;;;;;;21.03;7.57;;;;;;;3.83;83.29;97970.47;5058401;28;20201;-72
2022/01/14 10:58:01;;;;;;;17.07;6.33;;;;;;;3.87;81.69;97974.56;5057989;28;20206;-72
2022/01/14 11:00:37;;;;;;;19.87;8.43;;;;;;;3.85;82.36;97961.63;5058046;28;20203;-73
2022/01/14 11:03:04;;;;;;;11.63;6.07;;;;;;;3.77;82.55;97963.88;5057958;28;20208;-71
2022/01/14 11:05:31;;;;;;;19.87;5.83;;;;;;;3.91;81.64;97956.03;5057597;28;20232;-73
2022/01/14 11:07:57;;;;;;;8.40;4.17;;;;;;;3.72;82.66;97960.69;5058206;28;21013;-73
2022/01/14 11:10:26;;;;;;;15.80;6.50;;;;;;;3.71;83.68;97959.03;5058061;28;20196;-74
2022/01/14 11:12:54;;;;;;;21.93;5.77;;;;;;;4.00;82.91;97960.69;5057772;28;20229;-73
2022/01/14 11:15:22;;;;;;;11.03;6.60;;;;;;;4.15;83.06;97954.50;5058134;28;20203;-72
2022/01/14 11:17:52;;;;;;;14.87;6.03;;;;;;;3.90;83.51;97956.97;5058092;28;20215;-72
2022/01/14 11:20:24;;;;;;;11.33;4.07;;;;;;;3.79;83.02;97961.16;5057535;28;20207;-71
2022/01/14 11:25:39;;;;;;;9.00;4.87;;;;;;;4.18;83.32;97950.88;5057321;28;20832;-73
2022/01/14 11:28:08;;;;;;;14.77;7.30;;;;;;;4.31;81.73;97947.38;5057415;28;20291;-72
2022/01/14 11:30:36;;;;;;;16.20;5.73;;;;;;;4.53;81.49;97945.06;5056259;28;20905;-73
2022/01/14 11:33:04;;;;;;;14.40;7.40;;;;;;;4.70;80.99;97950.00;5056677;28;20298;-72
2022/01/14 11:35:32;;;;;;;18.07;5.77;;;;;;;4.48;81.48;97944.50;5056498;28;21076;-72
2022/01/14 11:38:00;;;;;;;15.13;5.77;;;;;;;4.88;80.62;97947.03;5057097;28;20200;-73
2022/01/14 11:40:26;;;;;;;19.53;7.47;;;;;;;4.73;80.10;97944.59;5057334;28;20208;-72
2022/01/14 11:42:59;;;;;;;12.17;5.30;;;;;;;4.73;80.16;97936.78;5056781;28;20204;-72
2022/01/14 11:45:52;;;;;;;15.97;5.50;;;;;;;5.00;78.70;97933.16;5057011;28;20315;-73
2022/01/14 11:48:32;;;;;;;12.03;5.70;;;;;;;5.09;78.71;97936.00;5057664;28;20196;-73
2022/01/14 11:51:03;;;;;;;11.97;5.40;;;;;;;5.16;78.46;97928.59;5056779;28;20342;-73